createdAt,value
2023-01-21T00:00:20.380Z,43.91
2023-01-21T00:00:44.743Z,43.65
2023-01-21T00:01:07.825Z,43.64
2023-01-21T00:01:29.601Z,43.54
2023-01-21T00:01:52.581Z,43.38
2023-01-21T00:02:14.685Z,43.40
2023-01-21T00:02:36.750Z,43.30
2023-01-21T00:02:58.681Z,43.58
2023-01-21T00:03:21.783Z,43.46
2023-01-21T00:03:44.142Z,43.70
2023-01-21T00:04:05.939Z,43.84
2023-01-21T00:04:28.000Z,43.70
2023-01-21T00:04:51.123Z,43.72
2023-01-21T00:05:13.477Z,43.90
2023-01-21T00:05:35.340Z,44.06
2023-01-21T00:05:58.414Z,43.73
2023-01-21T00:06:20.067Z,44.16
2023-01-21T00:06:43.075Z,44.14
2023-01-21T00:07:06.549Z,44.18
2023-01-21T00:07:28.328Z,44.21
2023-01-21T00:07:50.187Z,44.24
2023-01-21T00:08:12.010Z,43.52
2023-01-21T00:08:34.936Z,43.92
2023-01-21T00:08:59.347Z,43.67
2023-01-21T00:09:21.273Z,43.90
2023-01-21T00:09:43.054Z,43.80
2023-01-21T00:10:06.738Z,43.57
2023-01-21T00:10:28.681Z,43.85
2023-01-21T00:10:50.586Z,43.68
2023-01-21T00:11:15.395Z,43.49
2023-01-21T00:11:38.353Z,43.80
2023-01-21T00:12:03.012Z,43.62
2023-01-21T00:12:24.963Z,43.55
2023-01-21T00:12:46.911Z,43.75
2023-01-21T00:13:09.955Z,43.87
2023-01-21T00:13:33.512Z,43.82
2023-01-21T00:13:55.501Z,43.97
2023-01-21T00:14:17.602Z,43.84
2023-01-21T00:14:40.757Z,44.04
2023-01-21T00:15:02.510Z,44.00
2023-01-21T00:15:24.344Z,43.86
2023-01-21T00:15:46.354Z,44.12
2023-01-21T00:16:14.850Z,44.12
2023-01-21T00:16:36.888Z,44.05
2023-01-21T00:16:59.441Z,43.67
2023-01-21T00:17:21.356Z,43.70
2023-01-21T00:17:44.427Z,43.56
2023-01-21T00:18:08.410Z,43.52
2023-01-21T00:18:30.379Z,43.49
2023-01-21T00:18:52.131Z,43.61
2023-01-21T00:19:13.880Z,43.34
2023-01-21T00:19:36.728Z,43.35
2023-01-21T00:19:58.541Z,43.69
2023-01-21T00:20:20.629Z,43.64
2023-01-21T00:20:42.750Z,43.61
2023-01-21T00:21:05.842Z,43.93
2023-01-21T00:21:27.769Z,43.59
2023-01-21T00:21:49.549Z,43.70
2023-01-21T00:22:12.966Z,43.71
2023-01-21T00:22:35.679Z,43.74
2023-01-21T00:22:57.600Z,43.59
2023-01-21T00:23:19.662Z,43.83
2023-01-21T00:23:42.858Z,44.00
2023-01-21T00:24:04.870Z,43.73
2023-01-21T00:24:26.638Z,43.72
2023-01-21T00:24:48.451Z,43.83
2023-01-21T00:25:11.384Z,43.81
2023-01-21T00:25:33.174Z,43.61
2023-01-21T00:25:58.243Z,43.79
2023-01-21T00:26:20.101Z,43.93
2023-01-21T00:26:44.085Z,43.67
2023-01-21T00:27:06.359Z,43.81
2023-01-21T00:27:29.564Z,43.74
2023-01-21T00:27:54.337Z,43.62
2023-01-21T00:28:16.735Z,44.26
2023-01-21T00:28:41.638Z,44.02
2023-01-21T00:29:03.513Z,44.22
2023-01-21T00:29:28.789Z,44.29
2023-01-21T00:29:51.144Z,43.68
2023-01-21T00:30:18.623Z,43.72
2023-01-21T00:30:42.004Z,44.18
2023-01-21T00:31:08.118Z,43.74
2023-01-21T00:31:31.764Z,43.82
2023-01-21T00:31:55.470Z,44.20
2023-01-21T00:32:19.926Z,44.32
2023-01-21T00:32:42.191Z,44.07
2023-01-21T00:33:09.618Z,43.97
2023-01-21T00:33:34.107Z,43.90
2023-01-21T00:34:00.306Z,43.64
2023-01-21T00:34:23.099Z,43.37
2023-01-21T00:34:45.661Z,43.48
2023-01-21T00:35:12.674Z,43.44
2023-01-21T00:35:36.383Z,43.53
2023-01-21T00:36:02.089Z,43.35
2023-01-21T00:36:29.700Z,43.54
2023-01-21T00:36:56.604Z,43.50
2023-01-21T00:37:20.348Z,43.50
2023-01-21T00:37:42.341Z,43.23
2023-01-21T00:38:04.305Z,43.21
2023-01-21T00:38:29.387Z,43.33
2023-01-21T00:38:51.655Z,43.54
2023-01-21T00:39:13.835Z,43.24
2023-01-21T00:39:36.332Z,43.56
2023-01-21T00:39:59.382Z,43.65
2023-01-21T00:40:21.341Z,43.67
2023-01-21T00:40:43.207Z,43.75
2023-01-21T00:41:07.277Z,43.76
2023-01-21T00:41:30.618Z,43.87
2023-01-21T00:41:53.627Z,43.64
2023-01-21T00:42:15.428Z,43.47
2023-01-21T00:42:37.335Z,43.54
2023-01-21T00:43:00.472Z,43.75
2023-01-21T00:43:23.553Z,43.62
2023-01-21T00:43:45.635Z,43.78
2023-01-21T00:44:07.569Z,43.86
2023-01-21T00:44:30.749Z,43.76
2023-01-21T00:44:52.808Z,43.63
2023-01-21T00:45:14.838Z,43.64
2023-01-21T00:45:36.864Z,43.83
2023-01-21T00:45:59.200Z,43.99
2023-01-21T00:46:22.716Z,43.71
2023-01-21T00:46:44.666Z,43.92
2023-01-21T00:47:07.506Z,43.93
2023-01-21T00:47:29.391Z,43.99
2023-01-21T00:47:53.819Z,43.67
2023-01-21T00:48:15.785Z,43.63
2023-01-21T00:48:38.048Z,43.59
2023-01-21T00:49:00.395Z,43.46
2023-01-21T00:49:23.844Z,43.53
2023-01-21T00:49:45.720Z,43.39
2023-01-21T00:50:09.130Z,43.45
2023-01-21T00:50:31.035Z,43.20
2023-01-21T00:50:56.000Z,43.07
2023-01-21T00:51:18.113Z,43.33
2023-01-21T00:51:40.102Z,43.54
2023-01-21T00:52:02.277Z,43.47
2023-01-21T00:52:27.085Z,43.34
2023-01-21T00:52:49.141Z,43.39
2023-01-21T00:53:11.067Z,43.42
2023-01-21T00:53:35.072Z,43.85
2023-01-21T00:53:58.134Z,43.86
2023-01-21T00:54:20.097Z,43.72
2023-01-21T00:54:42.109Z,43.61
2023-01-21T00:55:04.683Z,43.92
2023-01-21T00:55:26.570Z,43.77
2023-01-21T00:55:50.061Z,43.68
2023-01-21T00:56:13.740Z,43.67
2023-01-21T00:56:35.788Z,43.68
2023-01-21T00:56:58.022Z,43.62
2023-01-21T00:57:22.065Z,43.20
2023-01-21T00:57:44.307Z,43.64
2023-01-21T00:58:06.172Z,43.51
2023-01-21T00:58:28.735Z,43.52
2023-01-21T00:58:52.181Z,43.75
2023-01-21T00:59:14.054Z,43.38
2023-01-21T00:59:36.013Z,43.65
2023-01-21T00:59:57.978Z,43.36
2023-01-21T01:00:21.537Z,43.58
2023-01-21T01:00:43.530Z,43.30
2023-01-21T01:01:08.293Z,43.31
2023-01-21T01:01:34.649Z,43.56
2023-01-21T01:01:57.596Z,43.69
2023-01-21T01:02:21.226Z,43.90
2023-01-21T01:02:43.240Z,44.14
2023-01-21T01:03:07.366Z,43.98
2023-01-21T01:03:29.926Z,43.77
2023-01-21T01:03:54.249Z,43.86
2023-01-21T01:04:16.302Z,43.76
2023-01-21T01:04:38.902Z,43.54
2023-01-21T01:05:02.299Z,43.65
2023-01-21T01:05:27.351Z,43.81
2023-01-21T01:05:57.795Z,43.40
2023-01-21T01:06:21.810Z,43.36
2023-01-21T01:06:44.204Z,43.47
2023-01-21T01:07:07.347Z,43.60
2023-01-21T01:07:30.723Z,43.52
2023-01-21T01:07:52.738Z,43.71
2023-01-21T01:08:15.008Z,43.75
2023-01-21T01:08:38.030Z,43.58
2023-01-21T01:09:00.030Z,43.60
2023-01-21T01:09:23.174Z,43.46
2023-01-21T01:09:46.119Z,43.98
2023-01-21T01:10:08.986Z,43.72
2023-01-21T01:10:30.729Z,43.97
2023-01-21T01:10:54.313Z,44.03
2023-01-21T01:11:17.855Z,43.53
2023-01-21T01:11:41.416Z,44.14
2023-01-21T01:12:03.566Z,44.21
2023-01-21T01:12:25.365Z,44.23
2023-01-21T01:12:48.742Z,43.84
2023-01-21T01:13:10.735Z,43.54
2023-01-21T01:13:34.965Z,43.35
2023-01-21T01:13:56.942Z,43.23
2023-01-21T01:14:18.648Z,43.26
2023-01-21T01:14:40.863Z,43.67
2023-01-21T01:15:03.690Z,43.75
2023-01-21T01:15:25.589Z,43.59
2023-01-21T01:15:50.995Z,43.67
2023-01-21T01:16:15.337Z,43.83
2023-01-21T01:16:38.287Z,44.07
2023-01-21T01:17:00.120Z,43.92
2023-01-21T01:17:22.119Z,43.83
2023-01-21T01:17:44.145Z,43.55
2023-01-21T01:18:06.183Z,43.39
2023-01-21T01:18:32.595Z,43.23
2023-01-21T01:18:55.550Z,43.05
2023-01-21T01:19:17.834Z,43.66
2023-01-21T01:19:39.951Z,43.83
2023-01-21T01:20:04.313Z,44.00
2023-01-21T01:20:26.587Z,43.88
2023-01-21T01:20:49.177Z,43.69
2023-01-21T01:21:13.364Z,44.11
2023-01-21T01:21:36.701Z,44.01
2023-01-21T01:21:59.002Z,44.15
2023-01-21T01:22:21.331Z,44.14
2023-01-21T01:22:44.829Z,43.68
2023-01-21T01:23:07.869Z,43.69
2023-01-21T01:23:30.125Z,43.77
2023-01-21T01:23:53.826Z,43.84
2023-01-21T01:24:17.584Z,43.74
2023-01-21T01:24:39.473Z,43.79
2023-01-21T01:25:01.414Z,43.73
2023-01-21T01:25:23.339Z,43.95
2023-01-21T01:25:54.226Z,43.48
2023-01-21T01:26:19.347Z,43.76
2023-01-21T01:26:42.400Z,43.95
2023-01-21T01:27:04.323Z,43.70
2023-01-21T01:27:26.183Z,44.03
2023-01-21T01:27:49.194Z,44.14
2023-01-21T01:28:11.289Z,43.63
2023-01-21T01:28:34.147Z,43.68
2023-01-21T01:28:57.027Z,43.89
2023-01-21T01:29:19.216Z,43.54
2023-01-21T01:29:41.282Z,43.74
2023-01-21T01:30:05.779Z,43.73
2023-01-21T01:30:29.017Z,43.30
2023-01-21T01:30:51.300Z,43.55
2023-01-21T01:31:15.720Z,43.59
2023-01-21T01:31:39.122Z,43.47
2023-01-21T01:32:01.458Z,43.59
2023-01-21T01:32:23.578Z,43.80
2023-01-21T01:32:45.484Z,43.80
2023-01-21T01:33:09.564Z,43.68
2023-01-21T01:33:32.494Z,43.58
2023-01-21T01:33:55.267Z,43.54
2023-01-21T01:34:17.229Z,43.44
2023-01-21T01:34:40.305Z,43.44
2023-01-21T01:35:04.883Z,43.64
2023-01-21T01:35:27.337Z,43.69
2023-01-21T01:35:49.629Z,43.84
2023-01-21T01:36:15.291Z,43.87
2023-01-21T01:36:37.260Z,44.07
2023-01-21T01:36:59.253Z,43.67
2023-01-21T01:37:21.193Z,43.52
2023-01-21T01:37:45.716Z,43.02
2023-01-21T01:38:09.500Z,43.26
2023-01-21T01:38:31.597Z,43.10
2023-01-21T01:38:55.046Z,43.36
2023-01-21T01:39:16.964Z,43.35
2023-01-21T01:39:38.997Z,43.83
2023-01-21T01:40:01.277Z,43.64
2023-01-21T01:40:23.215Z,43.47
2023-01-21T01:40:46.046Z,43.04
2023-01-21T01:41:07.937Z,43.08
2023-01-21T01:41:35.211Z,42.87
2023-01-21T01:41:57.075Z,42.95
2023-01-21T01:42:19.937Z,42.85
2023-01-21T01:42:41.913Z,43.24
2023-01-21T01:43:25.508Z,42.93
2023-01-21T01:43:55.602Z,43.07
2023-01-21T01:44:55.619Z,43.07
2023-01-21T01:45:20.407Z,43.10
2023-01-21T01:45:42.406Z,42.90
2023-01-21T01:46:04.315Z,42.76
2023-01-21T01:46:28.389Z,42.91
2023-01-21T01:46:52.093Z,42.87
2023-01-21T01:47:15.267Z,43.14
2023-01-21T01:47:42.457Z,43.43
2023-01-21T01:48:06.344Z,43.22
2023-01-21T01:48:33.332Z,43.36
2023-01-21T01:49:04.390Z,43.23
2023-01-21T01:49:26.640Z,43.18
2023-01-21T01:49:48.695Z,42.90
2023-01-21T01:50:16.217Z,42.98
2023-01-21T01:50:38.787Z,43.01
2023-01-21T01:51:04.222Z,42.53
2023-01-21T01:51:31.267Z,42.53
2023-01-21T01:51:57.381Z,42.76
2023-01-21T01:52:20.459Z,42.85
2023-01-21T01:52:44.872Z,42.72
2023-01-21T01:53:08.200Z,42.89
2023-01-21T01:53:32.711Z,42.86
2023-01-21T01:53:56.394Z,42.83
2023-01-21T01:54:23.054Z,42.61
2023-01-21T01:54:48.370Z,42.66
2023-01-21T01:55:15.508Z,42.74
2023-01-21T01:55:38.931Z,42.88
2023-01-21T01:56:02.042Z,42.90
2023-01-21T01:56:24.027Z,43.20
2023-01-21T01:56:51.579Z,43.36
2023-01-21T01:57:16.085Z,43.13
2023-01-21T01:57:42.031Z,43.38
2023-01-21T01:58:09.468Z,43.17
2023-01-21T01:58:33.077Z,43.17
2023-01-21T01:58:55.002Z,43.40
2023-01-21T01:59:18.495Z,43.29
2023-01-21T01:59:42.733Z,43.30
2023-01-21T02:00:08.994Z,43.40
2023-01-21T02:00:34.836Z,43.67
2023-01-21T02:00:58.053Z,43.60
2023-01-21T02:01:20.316Z,43.58
2023-01-21T02:01:42.508Z,43.44
2023-01-21T02:02:07.993Z,43.65
2023-01-21T02:02:32.940Z,43.30
2023-01-21T02:03:13.779Z,43.12
2023-01-21T02:03:46.369Z,43.03
2023-01-21T02:04:12.748Z,43.30
2023-01-21T02:04:42.530Z,43.30
2023-01-21T02:05:08.579Z,42.78
2023-01-21T02:05:32.135Z,42.85
2023-01-21T02:05:55.528Z,42.75
2023-01-21T02:06:19.161Z,42.82
2023-01-21T02:06:42.280Z,42.75
2023-01-21T02:07:04.812Z,42.78
2023-01-21T02:07:29.142Z,42.58
2023-01-21T02:07:52.617Z,42.38
2023-01-21T02:08:14.373Z,42.89
2023-01-21T02:08:37.460Z,42.37
2023-01-21T02:08:59.258Z,42.79
2023-01-21T02:09:21.536Z,42.64
2023-01-21T02:09:44.470Z,42.54
2023-01-21T02:10:08.553Z,42.73
2023-01-21T02:10:31.894Z,42.57
2023-01-21T02:10:56.385Z,42.70
2023-01-21T02:11:21.411Z,43.28
2023-01-21T02:11:43.322Z,43.58
2023-01-21T02:12:06.836Z,43.62
2023-01-21T02:12:28.896Z,43.53
2023-01-21T02:12:51.339Z,43.62
2023-01-21T02:13:14.479Z,43.86
2023-01-21T02:13:36.271Z,43.70
2023-01-21T02:14:00.046Z,43.82
2023-01-21T02:14:23.649Z,43.82
2023-01-21T02:14:47.313Z,43.90
2023-01-21T02:15:10.873Z,43.63
2023-01-21T02:15:42.102Z,43.32
2023-01-21T02:16:29.544Z,43.10
2023-01-21T02:17:04.635Z,43.52
2023-01-21T02:17:39.863Z,42.99
2023-01-21T02:18:12.343Z,42.94
2023-01-21T02:18:42.598Z,42.96
2023-01-21T02:19:24.415Z,43.09
2023-01-21T02:20:15.970Z,42.84
2023-01-21T02:21:25.067Z,42.81
2023-01-21T02:22:02.733Z,42.78
2023-01-21T02:22:31.218Z,43.05
2023-01-21T02:23:04.869Z,42.84
2023-01-21T02:23:46.086Z,43.46
2023-01-21T02:24:41.025Z,43.12
2023-01-21T02:25:42.365Z,42.77
2023-01-21T02:26:42.926Z,42.78
2023-01-21T02:27:31.498Z,42.98
2023-01-21T02:28:15.767Z,42.95
2023-01-21T02:29:01.147Z,42.96
2023-01-21T02:30:27.020Z,42.94
2023-01-21T02:31:22.497Z,43.07
2023-01-21T02:32:00.424Z,43.52
2023-01-21T02:32:52.604Z,43.40
2023-01-21T02:33:44.751Z,43.80
2023-01-21T02:34:14.341Z,43.70
2023-01-21T02:34:43.773Z,43.55
2023-01-21T02:35:14.052Z,43.35
2023-01-21T02:35:42.580Z,43.71
2023-01-21T02:36:31.272Z,43.79
2023-01-21T02:37:10.673Z,43.88
2023-01-21T02:37:38.889Z,43.63
2023-01-21T02:38:07.027Z,43.33
2023-01-21T02:38:32.642Z,43.37
2023-01-21T02:39:03.544Z,42.97
2023-01-21T02:39:35.214Z,43.14
2023-01-21T02:40:11.058Z,43.48
2023-01-21T02:40:38.803Z,43.44
2023-01-21T02:41:11.702Z,43.56
2023-01-21T02:41:45.564Z,42.86
2023-01-21T02:42:12.658Z,43.26
2023-01-21T02:42:46.248Z,43.08
2023-01-21T02:43:12.806Z,43.45
2023-01-21T02:43:43.186Z,43.57
2023-01-21T02:44:11.842Z,43.41
2023-01-21T02:44:39.850Z,43.56
2023-01-21T02:45:10.595Z,43.33
2023-01-21T02:45:39.320Z,43.86
2023-01-21T02:46:09.389Z,43.84
2023-01-21T02:46:37.798Z,43.87
2023-01-21T02:47:11.906Z,43.46
2023-01-21T02:47:40.980Z,43.12
2023-01-21T02:48:10.967Z,43.19
2023-01-21T02:48:39.212Z,43.07
2023-01-21T02:49:07.363Z,43.18
2023-01-21T02:49:35.182Z,43.16
2023-01-21T02:50:04.308Z,43.40
2023-01-21T02:50:28.669Z,43.52
2023-01-21T02:50:52.421Z,43.34
2023-01-21T02:51:14.620Z,43.69
2023-01-21T02:51:38.835Z,43.83
2023-01-21T02:52:00.953Z,43.88
2023-01-21T02:52:25.507Z,43.69
2023-01-21T02:52:56.570Z,43.15
2023-01-21T02:53:24.681Z,43.09
2023-01-21T02:53:47.121Z,43.13
2023-01-21T02:54:36.275Z,43.46
2023-01-21T02:55:00.769Z,43.00
2023-01-21T02:55:27.163Z,43.24
2023-01-21T02:55:49.298Z,43.59
2023-01-21T02:56:14.801Z,43.75
2023-01-21T02:56:37.791Z,43.66
2023-01-21T02:56:59.720Z,43.72
2023-01-21T02:57:34.061Z,43.32
2023-01-21T02:58:03.042Z,42.90
2023-01-21T02:58:29.251Z,42.92
2023-01-21T02:58:55.312Z,43.42
2023-01-21T02:59:17.262Z,43.58
2023-01-21T02:59:44.334Z,43.38
2023-01-21T03:00:13.247Z,43.37
2023-01-21T03:00:50.287Z,43.64
2023-01-21T03:01:21.218Z,43.69
2023-01-21T03:01:55.543Z,43.62
2023-01-21T03:02:28.811Z,43.71
2023-01-21T03:03:27.655Z,43.61
2023-01-21T03:04:12.463Z,43.89
2023-01-21T03:04:47.208Z,43.81
2023-01-21T03:05:20.984Z,43.99
2023-01-21T03:06:03.469Z,43.67
2023-01-21T03:06:41.892Z,43.84
2023-01-21T03:07:14.611Z,43.71
2023-01-21T03:07:41.892Z,43.75
2023-01-21T03:08:11.501Z,44.04
2023-01-21T03:08:42.234Z,43.64
2023-01-21T03:09:16.714Z,43.60
2023-01-21T03:09:40.104Z,43.33
2023-01-21T03:10:06.819Z,43.37
2023-01-21T03:10:32.828Z,43.49
2023-01-21T03:11:02.830Z,43.57
2023-01-21T03:11:26.520Z,43.31
2023-01-21T03:11:59.556Z,43.13
2023-01-21T03:12:30.727Z,43.15
2023-01-21T03:13:00.533Z,43.17
2023-01-21T03:13:48.715Z,43.26
2023-01-21T03:14:35.980Z,42.95
2023-01-21T03:15:21.677Z,42.88
2023-01-21T03:16:07.271Z,43.01
2023-01-21T03:16:53.545Z,43.22
2023-01-21T03:17:26.777Z,43.38
2023-01-21T03:17:55.002Z,43.48
2023-01-21T03:18:23.115Z,43.33
2023-01-21T03:18:50.824Z,43.42
2023-01-21T03:19:19.258Z,43.19
2023-01-21T03:19:46.836Z,43.17
2023-01-21T03:20:12.938Z,43.01
2023-01-21T03:20:40.894Z,43.49
2023-01-21T03:21:06.966Z,43.54
2023-01-21T03:21:32.988Z,43.19
2023-01-21T03:21:57.174Z,43.38
2023-01-21T03:22:23.539Z,43.24
2023-01-21T03:22:47.722Z,43.02
2023-01-21T03:23:15.507Z,43.09
2023-01-21T03:23:41.471Z,43.37
2023-01-21T03:24:04.668Z,43.14
2023-01-21T03:24:26.920Z,43.29
2023-01-21T03:24:52.550Z,43.34
2023-01-21T03:25:16.589Z,43.15
2023-01-21T03:25:40.543Z,43.17
2023-01-21T03:26:04.502Z,43.62
2023-01-21T03:26:32.216Z,43.41
2023-01-21T03:26:57.843Z,43.21
2023-01-21T03:27:24.338Z,43.07
2023-01-21T03:27:49.219Z,43.29
2023-01-21T03:28:14.018Z,43.62
2023-01-21T03:28:42.275Z,43.65
2023-01-21T03:29:13.958Z,43.35
2023-01-21T03:29:40.043Z,43.52
2023-01-21T03:30:05.631Z,43.61
2023-01-21T03:30:29.173Z,43.02
2023-01-21T03:30:57.434Z,43.18
2023-01-21T03:31:23.713Z,43.10
2023-01-21T03:31:49.886Z,43.01
2023-01-21T03:32:16.060Z,42.83
2023-01-21T03:32:40.665Z,43.15
2023-01-21T03:33:03.418Z,43.26
2023-01-21T03:33:28.231Z,43.41
2023-01-21T03:33:55.442Z,43.44
2023-01-21T03:34:20.780Z,43.62
2023-01-21T03:34:49.933Z,43.52
2023-01-21T03:35:14.695Z,43.58
2023-01-21T03:35:40.057Z,43.40
2023-01-21T03:36:06.721Z,43.57
2023-01-21T03:36:38.581Z,43.42
2023-01-21T03:37:05.639Z,43.29
2023-01-21T03:37:30.856Z,43.31
2023-01-21T03:37:57.974Z,43.33
2023-01-21T03:38:25.177Z,43.40
2023-01-21T03:38:52.131Z,43.15
2023-01-21T03:39:18.926Z,42.98
2023-01-21T03:39:48.640Z,43.15
2023-01-21T03:40:20.012Z,43.15
2023-01-21T03:40:46.889Z,43.38
2023-01-21T03:41:14.161Z,43.33
2023-01-21T03:41:40.928Z,43.20
2023-01-21T03:42:03.475Z,43.45
2023-01-21T03:42:25.670Z,43.25
2023-01-21T03:42:50.460Z,43.26
2023-01-21T03:43:13.554Z,43.07
2023-01-21T03:43:35.921Z,43.24
2023-01-21T03:43:58.024Z,43.48
2023-01-21T03:44:20.007Z,43.16
2023-01-21T03:44:42.415Z,43.13
2023-01-21T03:45:06.894Z,42.96
2023-01-21T03:45:35.820Z,43.13
2023-01-21T03:46:04.965Z,43.24
2023-01-21T03:46:36.635Z,43.05
2023-01-21T03:47:08.244Z,43.07
2023-01-21T03:47:33.195Z,43.18
2023-01-21T03:48:01.303Z,43.37
2023-01-21T03:48:29.615Z,43.35
2023-01-21T03:48:57.466Z,43.19
2023-01-21T03:49:25.754Z,43.32
2023-01-21T03:49:53.189Z,43.39
2023-01-21T03:50:21.353Z,43.40
2023-01-21T03:50:50.123Z,43.10
2023-01-21T03:51:16.558Z,43.47
2023-01-21T03:51:42.499Z,43.42
2023-01-21T03:52:07.758Z,43.33
2023-01-21T03:52:30.026Z,43.34
2023-01-21T03:52:52.271Z,43.49
2023-01-21T03:53:14.201Z,43.50
2023-01-21T03:53:37.329Z,43.55
2023-01-21T03:54:00.294Z,43.36
2023-01-21T03:54:22.692Z,43.27
2023-01-21T03:54:47.562Z,43.35
2023-01-21T03:55:15.120Z,43.37
2023-01-21T03:55:37.343Z,43.17
2023-01-21T03:56:00.107Z,43.67
2023-01-21T03:56:21.863Z,43.64
2023-01-21T03:56:44.633Z,43.58
2023-01-21T03:57:07.867Z,43.45
2023-01-21T03:57:29.748Z,43.23
2023-01-21T03:57:51.599Z,43.35
2023-01-21T03:58:14.066Z,43.12
2023-01-21T03:58:37.317Z,43.28
2023-01-21T03:58:59.433Z,43.34
2023-01-21T03:59:21.286Z,43.54
2023-01-21T03:59:43.276Z,43.34
2023-01-21T04:00:07.031Z,43.16
2023-01-21T04:00:30.170Z,43.02
2023-01-21T04:00:52.127Z,42.67
2023-01-21T04:01:14.070Z,42.78
2023-01-21T04:01:36.102Z,42.99
2023-01-21T04:01:59.027Z,43.01
2023-01-21T04:02:21.402Z,43.37
2023-01-21T04:02:43.758Z,43.54
2023-01-21T04:03:06.758Z,43.25
2023-01-21T04:03:28.717Z,43.28
2023-01-21T04:03:50.668Z,42.85
2023-01-21T04:04:13.259Z,43.03
2023-01-21T04:04:37.449Z,43.02
2023-01-21T04:04:59.441Z,43.20
2023-01-21T04:05:21.467Z,43.54
2023-01-21T04:05:43.294Z,43.40
2023-01-21T04:06:06.670Z,43.60
2023-01-21T04:06:28.505Z,43.36
2023-01-21T04:06:50.352Z,43.72
2023-01-21T04:07:12.038Z,43.40
2023-01-21T04:07:34.591Z,43.39
2023-01-21T04:07:57.761Z,43.26
2023-01-21T04:08:19.969Z,42.94
2023-01-21T04:08:41.969Z,43.00
2023-01-21T04:09:03.832Z,42.78
2023-01-21T04:09:27.025Z,43.04
2023-01-21T04:09:50.268Z,43.02
2023-01-21T04:10:12.167Z,43.35
2023-01-21T04:10:34.017Z,43.26
2023-01-21T04:10:58.355Z,43.27
2023-01-21T04:11:20.264Z,43.08
2023-01-21T04:11:42.151Z,42.83
2023-01-21T04:12:04.639Z,43.03
2023-01-21T04:12:26.829Z,42.75
2023-01-21T04:12:49.780Z,42.90
2023-01-21T04:13:11.896Z,43.05
2023-01-21T04:13:34.347Z,42.97
2023-01-21T04:13:56.083Z,43.14
2023-01-21T04:14:17.992Z,43.13
2023-01-21T04:14:41.163Z,43.45
2023-01-21T04:15:05.531Z,43.48
2023-01-21T04:15:27.785Z,43.33
2023-01-21T04:15:49.963Z,43.41
2023-01-21T04:16:14.417Z,43.44
2023-01-21T04:16:36.640Z,43.25
2023-01-21T04:16:58.450Z,43.26
2023-01-21T04:17:21.443Z,43.21
2023-01-21T04:17:43.202Z,43.26
2023-01-21T04:18:06.458Z,43.26
2023-01-21T04:18:28.309Z,43.13
2023-01-21T04:18:51.579Z,43.00
2023-01-21T04:19:13.574Z,43.10
2023-01-21T04:19:36.981Z,42.91
2023-01-21T04:19:58.766Z,42.98
2023-01-21T04:20:21.519Z,42.83
2023-01-21T04:20:46.217Z,42.82
2023-01-21T04:21:08.359Z,43.07
2023-01-21T04:21:30.649Z,42.96
2023-01-21T04:21:53.641Z,42.85
2023-01-21T04:22:15.330Z,42.97
2023-01-21T04:22:37.202Z,42.72
2023-01-21T04:22:59.058Z,42.78
2023-01-21T04:23:21.902Z,42.92
2023-01-21T04:23:43.696Z,42.87
2023-01-21T04:24:06.507Z,42.92
2023-01-21T04:24:28.218Z,43.12
2023-01-21T04:24:51.930Z,43.05
2023-01-21T04:25:14.222Z,42.91
2023-01-21T04:25:36.385Z,42.84
2023-01-21T04:25:58.376Z,42.59
2023-01-21T04:26:20.276Z,42.66
2023-01-21T04:26:43.436Z,42.92
2023-01-21T04:27:05.123Z,43.12
2023-01-21T04:27:27.084Z,43.05
2023-01-21T04:27:48.767Z,43.11
2023-01-21T04:28:11.847Z,43.14
2023-01-21T04:28:34.211Z,43.05
2023-01-21T04:28:56.131Z,43.26
2023-01-21T04:29:18.355Z,43.05
2023-01-21T04:29:41.123Z,43.07
2023-01-21T04:30:03.074Z,43.14
2023-01-21T04:30:24.928Z,42.93
2023-01-21T04:30:47.523Z,42.85
2023-01-21T04:31:10.634Z,43.15
2023-01-21T04:31:32.428Z,42.98
2023-01-21T04:31:54.528Z,43.07
2023-01-21T04:32:17.697Z,43.20
2023-01-21T04:32:39.696Z,43.06
2023-01-21T04:33:01.518Z,43.11
2023-01-21T04:33:23.411Z,42.85
2023-01-21T04:33:45.246Z,42.58
2023-01-21T04:34:08.295Z,42.58
2023-01-21T04:34:30.036Z,42.40
2023-01-21T04:34:54.325Z,42.55
2023-01-21T04:35:16.392Z,42.57
2023-01-21T04:35:39.591Z,43.04
2023-01-21T04:36:01.706Z,43.06
2023-01-21T04:36:24.658Z,43.03
2023-01-21T04:36:46.854Z,43.07
2023-01-21T04:37:08.942Z,42.85
2023-01-21T04:37:30.946Z,43.13
2023-01-21T04:37:54.256Z,42.98
2023-01-21T04:38:16.115Z,43.05
2023-01-21T04:38:37.954Z,43.39
2023-01-21T04:39:01.446Z,43.44
2023-01-21T04:39:24.492Z,43.14
2023-01-21T04:39:46.691Z,43.18
2023-01-21T04:40:10.133Z,43.21
2023-01-21T04:40:32.065Z,43.60
2023-01-21T04:40:54.226Z,43.21
2023-01-21T04:41:17.333Z,42.98
2023-01-21T04:41:39.141Z,42.79
2023-01-21T04:42:00.908Z,42.79
2023-01-21T04:42:22.693Z,43.05
2023-01-21T04:42:45.738Z,43.13
2023-01-21T04:43:07.743Z,42.75
2023-01-21T04:43:29.555Z,43.26
2023-01-21T04:43:51.427Z,43.31
2023-01-21T04:44:13.255Z,43.31
2023-01-21T04:44:36.383Z,43.06
2023-01-21T04:44:58.309Z,42.95
2023-01-21T04:45:20.209Z,42.50
2023-01-21T04:45:41.943Z,43.00
2023-01-21T04:46:04.994Z,42.94
2023-01-21T04:46:26.978Z,42.99
2023-01-21T04:46:48.698Z,43.20
2023-01-21T04:47:10.493Z,42.99
2023-01-21T04:47:33.389Z,42.40
2023-01-21T04:47:55.168Z,42.25
2023-01-21T04:48:17.334Z,42.47
2023-01-21T04:48:39.093Z,42.22
2023-01-21T04:49:02.073Z,42.50
2023-01-21T04:49:23.904Z,42.76
2023-01-21T04:49:45.861Z,42.39
2023-01-21T04:50:11.677Z,42.62
2023-01-21T04:50:37.399Z,42.42
2023-01-21T04:51:00.541Z,42.77
2023-01-21T04:51:22.860Z,42.75
2023-01-21T04:51:46.176Z,42.85
2023-01-21T04:52:09.423Z,42.73
2023-01-21T04:52:31.505Z,42.74
2023-01-21T04:52:55.256Z,42.90
2023-01-21T04:53:17.147Z,42.67
2023-01-21T04:53:39.029Z,42.60
2023-01-21T04:54:00.840Z,42.71
2023-01-21T04:54:23.153Z,42.54
2023-01-21T04:54:46.513Z,42.67
2023-01-21T04:55:09.769Z,42.76
2023-01-21T04:55:31.793Z,42.81
2023-01-21T04:55:54.250Z,42.57
2023-01-21T04:56:17.294Z,42.77
2023-01-21T04:56:39.153Z,42.92
2023-01-21T04:57:01.117Z,42.85
2023-01-21T04:57:24.346Z,42.72
2023-01-21T04:57:46.151Z,42.84
2023-01-21T04:58:10.031Z,42.44
2023-01-21T04:58:31.967Z,42.56
2023-01-21T04:58:55.182Z,42.41
2023-01-21T04:59:17.025Z,42.23
2023-01-21T04:59:39.268Z,42.34
2023-01-21T05:00:01.804Z,42.65
2023-01-21T05:00:24.985Z,42.40
2023-01-21T05:00:47.132Z,42.71
2023-01-21T05:01:09.572Z,42.82
2023-01-21T05:01:32.709Z,42.96
2023-01-21T05:01:54.547Z,42.86
2023-01-21T05:02:17.548Z,42.79
2023-01-21T05:02:41.878Z,42.36
2023-01-21T05:03:03.857Z,42.51
2023-01-21T05:03:27.944Z,42.44
2023-01-21T05:03:52.869Z,42.50
2023-01-21T05:04:16.052Z,42.35
2023-01-21T05:04:38.336Z,42.53
2023-01-21T05:05:02.840Z,42.49
2023-01-21T05:05:26.223Z,42.67
2023-01-21T05:05:49.414Z,42.66
2023-01-21T05:06:12.496Z,42.86
2023-01-21T05:06:34.744Z,42.65
2023-01-21T05:06:58.067Z,42.78
2023-01-21T05:07:21.696Z,42.54
2023-01-21T05:07:43.735Z,42.44
2023-01-21T05:08:06.362Z,42.59
2023-01-21T05:08:29.358Z,42.50
2023-01-21T05:08:51.421Z,42.85
2023-01-21T05:09:13.334Z,42.68
2023-01-21T05:09:35.041Z,42.63
2023-01-21T05:09:57.982Z,42.87
2023-01-21T05:10:20.235Z,42.96
2023-01-21T05:10:42.293Z,42.91
2023-01-21T05:11:05.434Z,42.71
2023-01-21T05:11:27.280Z,42.85
2023-01-21T05:11:49.045Z,42.89
2023-01-21T05:12:13.351Z,43.40
2023-01-21T05:12:35.341Z,42.85
2023-01-21T05:12:58.279Z,43.25
2023-01-21T05:13:20.138Z,43.34
2023-01-21T05:13:42.043Z,43.36
2023-01-21T05:14:04.425Z,43.28
2023-01-21T05:14:27.446Z,42.80
2023-01-21T05:14:53.247Z,43.09
2023-01-21T05:15:15.538Z,42.88
2023-01-21T05:15:37.459Z,42.87
2023-01-21T05:16:05.519Z,42.98
2023-01-21T05:16:27.537Z,42.80
2023-01-21T05:16:49.478Z,43.08
2023-01-21T05:17:11.568Z,43.15
2023-01-21T05:17:35.419Z,42.99
2023-01-21T05:17:57.244Z,42.81
2023-01-21T05:18:19.270Z,42.78
2023-01-21T05:18:42.073Z,42.73
2023-01-21T05:19:04.433Z,42.59
2023-01-21T05:19:28.013Z,42.58
2023-01-21T05:19:50.781Z,42.66
2023-01-21T05:20:13.435Z,42.66
2023-01-21T05:20:36.798Z,43.03
2023-01-21T05:20:58.986Z,42.72
2023-01-21T05:21:22.072Z,42.75
2023-01-21T05:21:43.877Z,42.75
2023-01-21T05:22:05.744Z,42.95
2023-01-21T05:22:27.623Z,42.64
2023-01-21T05:22:50.718Z,42.40